Time;durP1;ratioP1;P1;durP2;ratioP2;P2;SDS_P1;SDS_P2;PMS_P1;PMS_P2;Temp;Humidity;BMP_temperature;BMP_pressure;BME280_temperature;BME280_humidity;BME280_pressure;Samples;Min_cycle;Max_cycle;Signal;HPM_P1;HPM_P2
2021/10/03 00:01:59;;;;;;;5.93;3.88;;;;;;;4.99;72.95;97288.81;5048141;28;20030;-65
2021/10/03 00:04:31;;;;;;;7.68;4.28;;;;;;;4.99;73.18;97289.69;5035495;28;20034;-65
2021/10/03 00:06:59;;;;;;;6.47;4.30;;;;;;;5.05;73.27;97283.63;5045050;28;20087;-64
2021/10/03 00:09:24;;;;;;;8.57;4.40;;;;;;;5.03;72.56;97286.22;5035698;28;20105;-65
2021/10/03 00:11:51;;;;;;;8.45;4.70;;;;;;;5.03;73.01;97282.78;5035668;28;20432;-65
2021/10/03 00:14:20;;;;;;;6.45;4.15;;;;;;;5.03;72.81;97281.03;5035812;28;20031;-65
2021/10/03 00:16:47;;;;;;;6.97;4.78;;;;;;;5.00;72.86;97287.97;5039748;28;20434;-65
2021/10/03 00:19:16;;;;;;;6.90;4.82;;;;;;;4.91;73.43;97287.13;5054386;28;20028;-65
2021/10/03 00:21:42;;;;;;;6.97;4.35;;;;;;;5.00;72.88;97280.19;5054913;28;20029;-64
2021/10/03 00:24:08;;;;;;;5.40;4.03;;;;;;;4.97;73.10;97286.22;5052684;28;20239;-65
2021/10/03 00:26:34;;;;;;;6.55;4.07;;;;;;;4.96;73.00;97288.88;5045212;28;20457;-64
2021/10/03 00:29:01;;;;;;;5.13;4.10;;;;;;;4.90;73.49;97293.19;5036216;28;20602;-64
2021/10/03 00:31:26;;;;;;;5.22;4.10;;;;;;;4.88;73.83;97284.53;5035257;28;20024;-64
2021/10/03 00:33:52;;;;;;;8.98;4.22;;;;;;;4.83;73.61;97283.72;5035182;28;20433;-64
2021/10/03 00:36:18;;;;;;;6.53;4.18;;;;;;;4.78;73.44;97278.53;5051217;28;20048;-65
2021/10/03 00:38:43;;;;;;;6.15;4.45;;;;;;;4.70;73.74;97282.03;5051521;28;20038;-65
2021/10/03 00:41:09;;;;;;;8.00;4.40;;;;;;;4.72;73.49;97275.97;5054582;28;20017;-65
2021/10/03 00:43:35;;;;;;;6.72;4.38;;;;;;;4.72;73.76;97281.13;5055045;28;20474;-65
2021/10/03 00:46:00;;;;;;;5.93;4.20;;;;;;;4.72;73.72;97275.97;5052950;28;20053;-65
2021/10/03 00:48:26;;;;;;;7.40;4.72;;;;;;;4.75;73.52;97277.66;5054934;28;20021;-65
2021/10/03 00:50:52;;;;;;;7.20;4.53;;;;;;;4.74;73.05;97278.53;5053090;28;20029;-65
2021/10/03 00:53:18;;;;;;;8.90;5.10;;;;;;;4.68;73.49;97282.03;5053640;28;20048;-65
2021/10/03 00:55:43;;;;;;;9.60;4.97;;;;;;;4.61;73.68;97272.53;5054721;28;20017;-65
2021/10/03 00:58:10;;;;;;;7.03;4.93;;;;;;;4.66;73.93;97276.84;5043254;28;20037;-65
2021/10/03 01:00:38;;;;;;;11.05;4.78;;;;;;;4.68;73.61;97269.06;5053204;28;20025;-65
2021/10/03 01:03:06;;;;;;;8.48;4.53;;;;;;;4.68;73.74;97266.47;5054538;28;20071;-65
2021/10/03 01:05:33;;;;;;;8.13;4.88;;;;;;;4.67;72.96;97269.94;5054512;28;20096;-65
2021/10/03 01:08:00;;;;;;;5.85;4.15;;;;;;;4.69;73.15;97270.78;5037624;28;20037;-65
2021/10/03 01:10:28;;;;;;;9.52;4.55;;;;;;;4.67;72.88;97267.34;5035592;28;20022;-65
2021/10/03 01:13:02;;;;;;;8.30;5.15;;;;;;;4.64;73.12;97265.59;5034330;28;20092;-65
2021/10/03 01:15:29;;;;;;;15.60;6.22;;;;;;;4.65;73.35;97256.97;5034337;28;20059;-65
2021/10/03 01:17:54;;;;;;;17.73;7.00;;;;;;;4.61;73.44;97257.00;5049875;28;20064;-65
2021/10/03 01:20:20;;;;;;;18.13;7.47;;;;;;;4.61;73.73;97251.81;5053327;28;20053;-65
2021/10/03 01:22:47;;;;;;;13.20;6.63;;;;;;;4.63;73.41;97250.06;5039816;28;20028;-65
2021/10/03 01:25:15;;;;;;;13.48;5.45;;;;;;;4.61;73.62;97249.22;5054144;28;20542;-65
2021/10/03 01:27:40;;;;;;;9.80;5.35;;;;;;;4.62;73.46;97248.34;5045773;28;20038;-65
2021/10/03 01:30:11;;;;;;;12.00;5.20;;;;;;;4.55;73.42;97242.31;5034133;28;20036;-65
2021/10/03 01:32:37;;;;;;;6.40;5.05;;;;;;;4.56;73.73;97238.84;5035137;28;20051;-65
2021/10/03 01:35:03;;;;;;;10.52;5.50;;;;;;;4.48;73.61;97238.03;5033896;28;20546;-65
2021/10/03 01:37:30;;;;;;;8.93;5.72;;;;;;;4.49;73.76;97242.34;5033991;28;20083;-65
2021/10/03 01:39:56;;;;;;;8.77;5.03;;;;;;;4.46;73.65;97250.97;5034003;28;20051;-65
2021/10/03 01:42:22;;;;;;;9.80;5.38;;;;;;;4.45;73.44;97243.22;5043154;28;20437;-65
2021/10/03 01:44:47;;;;;;;7.15;4.38;;;;;;;4.32;73.53;97243.22;5053788;28;20116;-65
2021/10/03 01:47:13;;;;;;;8.68;5.00;;;;;;;4.23;74.12;97238.06;5050658;28;20033;-65
2021/10/03 01:49:39;;;;;;;7.35;4.80;;;;;;;4.21;74.12;97242.41;5053852;28;20060;-65
2021/10/03 01:52:04;;;;;;;7.55;4.32;;;;;;;4.14;74.04;97232.03;5044489;28;20075;-66
2021/10/03 01:54:33;;;;;;;7.22;4.85;;;;;;;4.12;74.64;97238.09;5051918;28;20056;-65
2021/10/03 01:57:00;;;;;;;7.07;4.80;;;;;;;4.07;74.61;97226.84;5053534;28;20096;-65
2021/10/03 01:59:26;;;;;;;9.73;4.78;;;;;;;4.01;74.46;97227.72;5033879;28;20029;-65
2021/10/03 02:01:51;;;;;;;6.97;4.82;;;;;;;4.00;75.32;97226.00;5034549;28;20383;-65
2021/10/03 02:04:20;;;;;;;7.88;4.88;;;;;;;4.00;74.78;97228.59;5034493;28;20471;-65
2021/10/03 02:06:48;;;;;;;5.97;4.53;;;;;;;4.05;74.59;97229.44;5033475;28;20151;-65
2021/10/03 02:09:15;;;;;;;10.65;5.22;;;;;;;4.08;74.73;97223.38;5033537;28;20022;-65
2021/10/03 02:11:44;;;;;;;6.00;4.15;;;;;;;4.10;74.56;97214.78;5038203;28;20031;-65
2021/10/03 02:14:11;;;;;;;7.63;4.72;;;;;;;4.15;74.35;97231.16;5051530;28;20024;-65
2021/10/03 02:16:36;;;;;;;10.00;5.13;;;;;;;4.12;74.28;97222.56;5052905;28;20040;-65
2021/10/03 02:19:02;;;;;;;10.57;5.13;;;;;;;4.10;74.26;97225.13;5053188;28;20021;-65
2021/10/03 02:21:29;;;;;;;8.27;4.88;;;;;;;4.08;74.46;97223.38;5049269;28;20479;-65
2021/10/03 02:23:54;;;;;;;10.32;4.85;;;;;;;4.10;74.91;97221.69;5036421;28;20055;-66
2021/10/03 02:26:20;;;;;;;10.07;4.88;;;;;;;4.07;74.66;97227.72;5052198;28;20021;-65
2021/10/03 02:28:46;;;;;;;10.30;4.90;;;;;;;3.97;74.00;97226.00;5052700;28;20527;-65
2021/10/03 02:31:12;;;;;;;8.93;5.30;;;;;;;3.90;74.65;97228.59;5037824;28;20541;-65
2021/10/03 02:33:39;;;;;;;10.57;5.55;;;;;;;3.96;74.79;97224.25;5053010;28;20410;-65
2021/10/03 02:36:06;;;;;;;9.68;5.32;;;;;;;3.89;75.09;97215.66;5049914;28;20107;-66
2021/10/03 02:38:31;;;;;;;10.13;5.00;;;;;;;3.84;74.80;97220.84;5033114;28;20030;-65
2021/10/03 02:40:59;;;;;;;9.20;5.30;;;;;;;3.77;75.17;97213.94;5045000;28;20028;-65
2021/10/03 02:43:27;;;;;;;11.32;5.18;;;;;;;3.83;74.96;97216.53;5033046;28;20112;-65
2021/10/03 02:45:53;;;;;;;8.32;4.93;;;;;;;3.77;74.71;97221.69;5033839;28;20030;-65
2021/10/03 02:48:21;;;;;;;6.70;4.38;;;;;;;3.73;75.21;97218.22;5032992;28;20080;-65
2021/10/03 02:50:48;;;;;;;9.48;4.70;;;;;;;3.74;75.14;97221.69;5033069;28;20017;-65
2021/10/03 02:53:15;;;;;;;6.97;5.05;;;;;;;3.64;76.02;97231.16;5035502;28;20021;-66
2021/10/03 02:55:41;;;;;;;11.57;6.00;;;;;;;3.58;76.17;97220.84;5034275;28;20064;-65
2021/10/03 02:58:07;;;;;;;7.13;4.90;;;;;;;3.66;76.13;97213.91;5052632;28;20033;-65
2021/10/03 03:00:34;;;;;;;12.60;5.75;;;;;;;3.58;76.07;97215.66;5057051;28;20486;-65
2021/10/03 03:03:00;;;;;;;6.20;4.95;;;;;;;3.54;76.28;97227.72;5039777;28;20021;-65
2021/10/03 03:05:25;;;;;;;6.65;5.22;;;;;;;3.55;76.52;97226.84;5036878;28;20391;-65
2021/10/03 03:07:51;;;;;;;7.35;5.07;;;;;;;3.48;76.41;97230.28;5050548;28;20471;-65
2021/10/03 03:10:17;;;;;;;12.38;5.65;;;;;;;3.46;75.86;97229.44;5050958;28;20101;-65
2021/10/03 03:12:43;;;;;;;7.90;5.18;;;;;;;3.48;76.18;97236.34;5036852;28;20108;-65
2021/10/03 03:15:09;;;;;;;11.30;5.72;;;;;;;3.47;76.98;97231.16;5036729;28;20557;-65
2021/10/03 03:17:36;;;;;;;9.25;4.95;;;;;;;3.51;77.16;97232.88;5037566;28;20057;-65
2021/10/03 03:20:03;;;;;;;7.00;5.25;;;;;;;3.54;76.75;97233.75;5036656;28;20026;-65
2021/10/03 03:22:29;;;;;;;7.72;5.40;;;;;;;3.55;76.42;97234.59;5045623;28;20029;-65
2021/10/03 03:24:54;;;;;;;11.23;5.43;;;;;;;3.49;76.38;97234.63;5056032;28;20033;-65
2021/10/03 03:27:20;;;;;;;11.57;4.82;;;;;;;3.48;76.75;97240.63;5054563;28;20029;-65
2021/10/03 03:29:46;;;;;;;9.43;5.10;;;;;;;3.45;77.16;97233.75;5056320;28;20487;-65
2021/10/03 03:32:11;;;;;;;7.55;5.50;;;;;;;3.44;77.17;97236.31;5046628;28;20023;-65
2021/10/03 03:34:37;;;;;;;9.40;6.10;;;;;;;3.44;77.22;97234.63;5036391;28;20027;-65
2021/10/03 03:37:03;;;;;;;10.05;5.38;;;;;;;3.48;77.35;97236.34;5036037;28;20073;-65
2021/10/03 03:39:28;;;;;;;6.63;5.07;;;;;;;3.54;77.00;97238.06;5037074;28;20446;-65
2021/10/03 03:41:54;;;;;;;7.47;5.25;;;;;;;3.56;76.71;97236.34;5036254;28;20017;-65
2021/10/03 03:44:19;;;;;;;10.57;6.15;;;;;;;3.55;77.00;97229.44;5036197;28;20375;-65
2021/10/03 03:46:45;;;;;;;12.13;5.55;;;;;;;3.59;76.94;97232.91;5037024;28;20033;-66
2021/10/03 03:49:11;;;;;;;13.43;5.78;;;;;;;3.57;76.85;97235.47;5037114;28;20048;-65
2021/10/03 03:51:36;;;;;;;11.48;5.15;;;;;;;3.60;76.88;97240.66;5035955;28;20471;-65
2021/10/03 03:54:02;;;;;;;8.45;5.43;;;;;;;3.48;76.80;97240.63;5040940;28;20023;-65
2021/10/03 03:56:28;;;;;;;18.02;6.38;;;;;;;3.49;77.11;97234.63;5055870;28;20028;-65
2021/10/03 03:58:53;;;;;;;9.07;5.72;;;;;;;3.53;77.05;97236.34;5053566;28;20386;-66
2021/10/03 04:01:20;;;;;;;13.05;5.75;;;;;;;3.54;77.14;97235.47;5055333;28;20060;-66
2021/10/03 04:03:46;;;;;;;8.25;5.53;;;;;;;3.56;76.73;97244.13;5055685;28;20028;-65
2021/10/03 04:06:12;;;;;;;6.63;4.90;;;;;;;3.62;76.54;97240.66;5053939;28;20382;-65
2021/10/03 04:08:38;;;;;;;14.52;5.35;;;;;;;3.60;75.96;97237.19;5035672;28;20021;-65
2021/10/03 04:11:04;;;;;;;6.38;4.60;;;;;;;3.64;75.66;97241.50;5035170;28;20034;-65
2021/10/03 04:13:31;;;;;;;13.95;5.35;;;;;;;3.72;76.62;97236.34;5044739;28;20502;-65
2021/10/03 04:15:57;;;;;;;9.32;5.20;;;;;;;3.71;76.17;97242.41;5035442;28;20513;-65
2021/10/03 04:18:23;;;;;;;9.85;4.60;;;;;;;3.71;76.02;97235.50;5035707;28;20033;-65
2021/10/03 04:20:48;;;;;;;8.70;4.90;;;;;;;3.73;75.98;97244.13;5045373;28;20039;-66
2021/10/03 04:23:14;;;;;;;6.85;5.15;;;;;;;3.65;75.73;97241.50;5054662;28;20395;-65
2021/10/03 04:25:40;;;;;;;9.65;4.60;;;;;;;3.67;75.43;97242.38;5054812;28;20025;-65
2021/10/03 04:28:06;;;;;;;9.95;4.78;;;;;;;3.65;75.87;97246.69;5041847;28;20033;-65
2021/10/03 04:30:32;;;;;;;10.18;4.75;;;;;;;3.64;76.59;97249.28;5053353;28;20036;-65
2021/10/03 04:32:58;;;;;;;8.27;4.85;;;;;;;3.70;77.61;97254.47;5049101;28;20107;-65
2021/10/03 04:35:23;;;;;;;7.53;4.93;;;;;;;3.76;76.51;97259.66;5045158;28;20132;-65
2021/10/03 04:37:49;;;;;;;8.52;4.13;;;;;;;3.82;75.86;97258.78;5036258;28;20041;-65
2021/10/03 04:40:15;;;;;;;6.15;4.22;;;;;;;3.86;76.01;97252.78;5055145;28;20028;-65
2021/10/03 04:42:41;;;;;;;9.52;4.63;;;;;;;3.95;75.72;97249.31;5053192;28;20025;-65
2021/10/03 04:45:07;;;;;;;9.65;4.45;;;;;;;4.02;75.90;97247.56;5053668;28;20028;-66
2021/10/03 04:47:33;;;;;;;8.30;4.60;;;;;;;4.08;75.85;97249.28;5041389;28;20030;-65
2021/10/03 04:50:00;;;;;;;7.15;4.45;;;;;;;4.14;75.54;97252.75;5034855;28;20037;-65
2021/10/03 04:52:26;;;;;;;9.40;5.03;;;;;;;4.15;75.75;97249.28;5035822;28;20021;-65
2021/10/03 04:54:52;;;;;;;10.40;5.97;;;;;;;4.23;76.34;97259.66;5034705;28;20533;-65
2021/10/03 04:57:18;;;;;;;10.35;4.82;;;;;;;4.23;76.95;97254.47;5036064;28;20033;-65
2021/10/03 04:59:44;;;;;;;8.20;4.28;;;;;;;4.33;76.31;97257.06;5054671;28;20025;-65
2021/10/03 05:02:10;;;;;;;8.38;4.85;;;;;;;4.37;76.39;97264.78;5052444;28;20079;-65
2021/10/03 05:04:35;;;;;;;10.45;5.57;;;;;;;4.49;76.25;97273.44;5049301;28;20040;-65
2021/10/03 05:07:01;;;;;;;9.82;4.95;;;;;;;5.17;76.52;97273.19;5053639;28;20043;-65
2021/10/03 05:09:27;;;;;;;6.70;4.00;;;;;;;6.75;72.57;97266.84;5053755;28;20466;-68
2021/10/03 05:11:52;;;;;;;5.55;3.10;;;;;;;8.35;64.75;97268.06;5040719;28;20032;-68
2021/10/03 05:14:18;;;;;;;6.05;2.50;;;;;;;9.79;61.07;97271.31;5047913;28;20060;-68
2021/10/03 05:16:44;;;;;;;4.85;3.00;;;;;;;11.21;57.02;97283.41;5045709;28;20030;-68
2021/10/03 05:19:10;;;;;;;4.35;2.53;;;;;;;12.30;53.18;97270.50;5048347;28;20075;-68
2021/10/03 05:21:36;;;;;;;4.47;2.42;;;;;;;13.30;50.74;97275.78;5050404;28;20034;-68
2021/10/03 05:24:02;;;;;;;7.70;2.50;;;;;;;14.46;48.96;97280.06;5034302;28;20068;-68
2021/10/03 05:26:28;;;;;;;5.50;2.47;;;;;;;15.67;45.86;97275.69;5034004;28;20493;-68
2021/10/03 05:28:54;;;;;;;2.10;1.73;;;;;;;16.59;43.77;97276.59;5034959;28;20084;-67
2021/10/03 05:31:19;;;;;;;3.20;2.35;;;;;;;17.32;42.61;97279.91;5034627;28;20025;-68
2021/10/03 05:33:46;;;;;;;3.42;2.20;;;;;;;18.09;40.76;97281.03;5043038;28;20095;-68
2021/10/03 05:36:11;;;;;;;3.55;2.13;;;;;;;18.77;39.94;97277.13;5047806;28;20052;-68
2021/10/03 05:38:37;;;;;;;4.15;1.77;;;;;;;19.59;38.82;97275.75;5053996;28;20379;-68
2021/10/03 05:41:02;;;;;;;2.67;2.13;;;;;;;20.22;37.29;97267.34;5053746;28;20025;-68
2021/10/03 05:43:28;;;;;;;5.25;2.15;;;;;;;20.76;36.47;97262.91;5037664;28;20476;-68
2021/10/03 05:45:54;;;;;;;7.20;2.00;;;;;;;21.29;35.46;97269.97;5033697;28;20105;-67
2021/10/03 05:48:21;;;;;;;4.20;2.00;;;;;;;21.69;34.72;97268.94;5033712;28;20076;-67
2021/10/03 05:50:47;;;;;;;3.20;1.60;;;;;;;22.07;34.53;97266.28;5036861;28;20067;-67
2021/10/03 05:53:13;;;;;;;7.70;2.22;;;;;;;22.62;33.78;97270.25;5052391;28;20017;-67
2021/10/03 05:55:38;;;;;;;3.53;2.10;;;;;;;23.27;33.25;97270.59;5053387;28;20386;-67
2021/10/03 05:58:04;;;;;;;3.60;2.28;;;;;;;23.85;32.60;97269.66;5053432;28;20025;-67
2021/10/03 06:00:30;;;;;;;3.58;1.90;;;;;;;24.47;31.12;97273.63;5044148;28;20033;-67
2021/10/03 06:02:57;;;;;;;5.55;4.28;;;;;;;24.78;30.13;97272.84;5033511;28;20025;-67
2021/10/03 06:05:22;;;;;;;7.20;3.75;;;;;;;25.13;28.84;97277.00;5033605;28;20029;-67
2021/10/03 06:07:48;;;;;;;9.85;3.97;;;;;;;25.42;28.12;97280.81;5033181;28;20510;-67
2021/10/03 06:10:13;;;;;;;9.15;4.13;;;;;;;25.45;27.74;97286.75;5040524;28;20017;-71
2021/10/03 06:12:39;;;;;;;7.25;4.13;;;;;;;25.53;27.48;97291.44;5053427;28;20028;-70
2021/10/03 06:15:06;;;;;;;5.15;3.28;;;;;;;25.73;27.96;97296.88;5053305;28;20025;-68
2021/10/03 06:17:32;;;;;;;7.57;3.63;;;;;;;26.29;27.17;97293.75;5053053;28;20386;-66
2021/10/03 06:19:58;;;;;;;5.32;2.63;;;;;;;26.71;26.24;97293.50;5050361;28;20039;-67
2021/10/03 06:22:25;;;;;;;4.25;2.88;;;;;;;27.09;27.18;97295.47;5052505;28;20031;-68
2021/10/03 06:24:52;;;;;;;7.82;2.63;;;;;;;26.98;26.49;97300.00;5053108;28;20025;-67
2021/10/03 06:27:18;;;;;;;6.95;2.97;;;;;;;27.26;26.45;97304.59;5053005;28;20514;-68
2021/10/03 06:29:45;;;;;;;8.35;3.30;;;;;;;27.64;25.76;97301.91;5035180;28;20117;-68
2021/10/03 06:32:11;;;;;;;6.30;2.67;;;;;;;28.10;25.75;97298.44;5033167;28;20052;-66
2021/10/03 06:34:37;;;;;;;5.93;2.58;;;;;;;28.72;25.17;97299.56;5045007;28;20446;-67
2021/10/03 06:37:03;;;;;;;4.78;2.17;;;;;;;28.86;24.47;97308.91;5035172;28;20054;-66
2021/10/03 06:39:28;;;;;;;8.82;2.17;;;;;;;28.53;24.88;97303.28;5048083;28;20025;-68
2021/10/03 06:41:54;;;;;;;4.82;3.22;;;;;;;28.62;24.31;97303.19;5052497;28;20614;-66
2021/10/03 06:44:20;;;;;;;5.13;3.17;;;;;;;28.67;24.65;97302.72;5046186;28;20028;-67
2021/10/03 06:46:46;;;;;;;6.40;2.78;;;;;;;28.66;24.81;97301.03;5033026;28;20028;-67
2021/10/03 06:49:11;;;;;;;3.20;2.90;;;;;;;28.68;25.29;97300.88;5034936;28;20032;-66
2021/10/03 06:51:37;;;;;;;6.82;2.97;;;;;;;28.34;25.23;97303.25;5047695;28;20017;-68
2021/10/03 06:54:04;;;;;;;3.42;2.20;;;;;;;28.35;24.96;97298.75;5043571;28;20032;-66
2021/10/03 06:56:30;;;;;;;5.85;2.20;;;;;;;28.16;25.31;97303.22;5047141;28;20024;-67
2021/10/03 06:58:55;;;;;;;5.35;2.72;;;;;;;28.00;26.14;97309.25;5051156;28;20463;-67
2021/10/03 07:01:21;;;;;;;2.75;2.00;;;;;;;27.43;26.91;97305.69;5050171;28;20017;-68
2021/10/03 07:03:47;;;;;;;6.55;2.50;;;;;;;26.72;27.47;97302.38;5051581;28;20025;-66
2021/10/03 07:06:13;;;;;;;2.63;2.42;;;;;;;26.32;27.50;97299.72;5042530;28;20399;-68
2021/10/03 07:08:39;;;;;;;2.83;2.20;;;;;;;26.15;28.85;97303.06;5032801;28;20032;-68
2021/10/03 07:11:05;;;;;;;3.95;2.42;;;;;;;25.91;29.89;97302.44;5046986;28;20429;-65
2021/10/03 07:13:31;;;;;;;3.25;2.25;;;;;;;25.72;29.83;97305.91;5052912;28;20111;-68
2021/10/03 07:15:57;;;;;;;3.40;2.20;;;;;;;25.53;29.58;97293.25;5051511;28;20025;-66
2021/10/03 07:18:22;;;;;;;4.95;2.13;;;;;;;25.47;29.29;97298.16;5052597;28;20090;-65
2021/10/03 07:20:48;;;;;;;5.55;3.38;;;;;;;25.44;29.43;97300.28;5052444;28;20130;-67
2021/10/03 07:23:14;;;;;;;4.40;2.47;;;;;;;25.04;29.64;97302.72;5052670;28;20021;-66
2021/10/03 07:25:39;;;;;;;3.58;2.05;;;;;;;24.57;30.58;97303.09;5052490;28;20028;-67
2021/10/03 07:28:05;;;;;;;2.63;2.08;;;;;;;24.14;31.45;97302.97;5050710;28;20026;-68
2021/10/03 07:30:31;;;;;;;3.30;2.00;;;;;;;24.10;31.82;97305.03;5032503;28;20372;-66
2021/10/03 07:32:57;;;;;;;3.97;2.20;;;;;;;24.07;31.17;97301.75;5032690;28;20021;-68
2021/10/03 07:35:23;;;;;;;2.67;2.03;;;;;;;23.87;31.35;97312.22;5032399;28;20100;-66
2021/10/03 07:37:49;;;;;;;10.75;2.50;;;;;;;23.82;31.04;97309.09;5045776;28;20041;-67
2021/10/03 07:40:15;;;;;;;6.00;2.30;;;;;;;23.71;29.92;97312.63;5051797;28;20032;-68
2021/10/03 07:42:42;;;;;;;9.55;2.13;;;;;;;23.67;31.83;97306.69;5052422;28;20118;-68
2021/10/03 07:45:08;;;;;;;6.05;2.10;;;;;;;23.66;30.48;97312.16;5052481;28;20028;-66
2021/10/03 07:47:34;;;;;;;5.13;2.40;;;;;;;22.51;28.68;97313.72;5046798;28;20022;-67
2021/10/03 07:50:00;;;;;;;5.72;2.55;;;;;;;21.40;29.87;97313.59;5036023;28;20104;-67
2021/10/03 07:52:25;;;;;;;7.18;2.70;;;;;;;20.61;31.70;97317.94;5036922;28;20032;-65
2021/10/03 07:54:52;;;;;;;6.70;2.70;;;;;;;20.18;30.98;97305.69;5035977;28;20501;-67
2021/10/03 07:57:18;;;;;;;7.60;2.90;;;;;;;20.12;31.17;97317.56;5035681;28;20029;-66
2021/10/03 07:59:43;;;;;;;5.47;3.03;;;;;;;20.19;33.14;97313.56;5047880;28;20025;-67
2021/10/03 08:02:09;;;;;;;6.75;2.72;;;;;;;20.32;34.47;97318.91;5035687;28;20030;-65
2021/10/03 08:04:35;;;;;;;3.83;2.25;;;;;;;20.03;34.12;97311.06;5043626;28;20530;-67
2021/10/03 08:07:01;;;;;;;4.82;2.72;;;;;;;20.40;34.54;97310.44;5043782;28;20112;-66
2021/10/03 08:09:26;;;;;;;3.05;2.33;;;;;;;20.23;32.56;97308.91;5036475;28;20083;-67
2021/10/03 08:11:54;;;;;;;10.05;2.67;;;;;;;20.28;32.08;97314.75;5055559;28;20056;-65
2021/10/03 08:14:19;;;;;;;3.67;2.40;;;;;;;20.42;33.36;97318.31;5055578;28;20059;-65
2021/10/03 08:16:45;;;;;;;5.63;3.30;;;;;;;20.56;32.79;97314.75;5038147;28;20116;-65
2021/10/03 08:19:10;;;;;;;9.88;2.83;;;;;;;20.40;32.99;97310.44;5035604;28;20459;-67
2021/10/03 08:21:36;;;;;;;7.85;3.00;;;;;;;19.90;33.03;97313.59;5035277;28;20082;-66
2021/10/03 08:24:01;;;;;;;5.05;2.70;;;;;;;20.04;33.89;97315.41;5035387;28;20072;-66
2021/10/03 08:26:27;;;;;;;4.93;2.30;;;;;;;20.27;33.56;97312.22;5045141;28;20033;-67
2021/10/03 08:28:52;;;;;;;3.35;2.70;;;;;;;20.09;34.41;97312.47;5055222;28;20037;-66
2021/10/03 08:31:18;;;;;;;9.05;2.72;;;;;;;20.00;33.08;97305.06;5055083;28;20027;-67
2021/10/03 08:33:44;;;;;;;8.73;2.78;;;;;;;19.99;34.73;97311.31;5055158;28;20021;-65
2021/10/03 08:36:09;;;;;;;10.50;2.80;;;;;;;20.05;34.10;97306.47;5049389;28;20076;-66
2021/10/03 08:38:35;;;;;;;7.28;2.60;;;;;;;20.34;33.79;97310.84;5035294;28;20145;-66
2021/10/03 08:41:01;;;;;;;8.23;2.63;;;;;;;20.38;33.47;97307.03;5035053;28;20108;-66
2021/10/03 08:43:29;;;;;;;4.80;2.83;;;;;;;20.26;33.27;97307.84;5035114;28;20017;-66
2021/10/03 08:45:57;;;;;;;5.38;2.45;;;;;;;19.93;31.80;97305.44;5034988;28;20379;-67
2021/10/03 08:48:24;;;;;;;12.00;2.88;;;;;;;19.90;33.82;97312.75;5034666;28;20029;-66
2021/10/03 08:50:50;;;;;;;5.00;2.67;;;;;;;20.03;33.54;97304.88;5034816;28;20471;-66
2021/10/03 08:53:16;;;;;;;7.53;3.28;;;;;;;20.24;34.40;97307.09;5034943;28;20511;-67
2021/10/03 08:55:44;;;;;;;7.47;2.58;;;;;;;20.57;35.51;97300.50;5034631;28;20375;-66
2021/10/03 08:58:10;;;;;;;4.05;3.13;;;;;;;20.41;33.20;97304.16;5035324;28;20033;-67
2021/10/03 09:00:48;;;;;;;7.03;2.70;;;;;;;20.17;32.59;97298.69;5034710;28;20026;-66
2021/10/03 09:03:17;;;;;;;5.57;2.55;;;;;;;20.09;32.94;97293.88;5034778;28;20032;-66
2021/10/03 09:05:57;;;;;;;3.22;2.38;;;;;;;20.00;32.72;97299.75;5034591;28;20041;-66
2021/10/03 09:08:25;;;;;;;4.07;2.55;;;;;;;19.61;33.32;97302.19;5044184;28;20029;-67
2021/10/03 09:10:59;;;;;;;3.92;2.58;;;;;;;19.41;32.08;97299.84;5046725;28;20356;-66
2021/10/03 09:13:31;;;;;;;4.75;2.33;;;;;;;19.54;33.62;97296.41;5054529;28;20051;-66
2021/10/03 09:16:22;;;;;;;3.40;2.35;;;;;;;19.76;34.23;97295.06;5049409;28;20021;-66
2021/10/03 09:18:56;;;;;;;7.43;2.80;;;;;;;20.02;32.05;97288.09;5054045;28;20064;-67
2021/10/03 09:21:31;;;;;;;4.72;2.58;;;;;;;20.29;33.67;97289.06;5054246;28;20100;-67
2021/10/03 09:24:13;;;;;;;4.18;2.65;;;;;;;20.37;32.89;97292.06;5054229;28;20029;-67
2021/10/03 09:26:56;;;;;;;5.25;2.33;;;;;;;20.44;32.11;97287.19;5047074;28;20569;-66
2021/10/03 09:29:29;;;;;;;4.20;2.30;;;;;;;20.22;32.48;97285.94;5034157;28;20025;-67
2021/10/03 09:32:08;;;;;;;3.08;2.38;;;;;;;19.63;33.19;97285.22;5034012;28;20494;-67
2021/10/03 09:34:34;;;;;;;8.23;2.30;;;;;;;19.48;32.71;97279.09;5034009;28;20530;-67
2021/10/03 09:37:24;;;;;;;4.80;2.72;;;;;;;19.59;35.20;97289.00;5034618;28;20045;-67
2021/10/03 09:40:00;;;;;;;6.55;2.20;;;;;;;19.64;33.49;97278.09;5034198;28;20083;-66
2021/10/03 09:42:25;;;;;;;5.35;2.75;;;;;;;19.61;34.73;97278.31;5033908;28;20029;-66
2021/10/03 09:45:12;;;;;;;2.17;1.95;;;;;;;19.62;33.16;97280.84;5034000;28;20526;-67
2021/10/03 09:47:40;;;;;;;5.55;3.25;;;;;;;19.49;33.68;97279.94;5034701;28;20025;-66
2021/10/03 09:50:09;;;;;;;8.13;2.70;;;;;;;19.41;35.09;97268.00;5043787;28;20368;-66
2021/10/03 09:52:37;;;;;;;2.28;2.08;;;;;;;19.57;34.49;97269.69;5053648;28;20025;-67
2021/10/03 09:55:05;;;;;;;4.90;2.22;;;;;;;19.69;34.09;97268.91;5053600;28;20028;-67
2021/10/03 09:57:31;;;;;;;2.78;2.08;;;;;;;19.63;32.86;97260.50;5052645;28;20033;-68
2021/10/03 09:59:57;;;;;;;9.13;2.63;;;;;;;19.65;33.19;97262.09;5031451;28;20040;-66
2021/10/03 10:02:23;;;;;;;4.43;2.35;;;;;;;19.74;32.88;97265.97;5030539;28;20555;-67
2021/10/03 10:04:49;;;;;;;6.38;2.30;;;;;;;19.83;32.82;97265.38;5030523;28;20033;-67
2021/10/03 10:07:18;;;;;;;2.65;1.70;;;;;;;19.80;31.76;97260.25;5040305;28;20029;-66
2021/10/03 10:09:48;;;;;;;5.78;1.83;;;;;;;19.67;32.88;97254.03;5045679;28;20467;-66
2021/10/03 10:12:21;;;;;;;7.57;1.80;;;;;;;19.49;31.26;97251.59;5030692;28;20030;-67
2021/10/03 10:14:58;;;;;;;4.55;2.35;;;;;;;19.43;34.33;97244.91;5034364;28;20483;-66
2021/10/03 10:17:38;;;;;;;2.85;2.25;;;;;;;19.44;32.87;97245.72;5047768;28;20062;-66
2021/10/03 10:20:24;;;;;;;3.28;2.40;;;;;;;19.56;34.33;97234.34;5053378;28;20021;-66
2021/10/03 10:23:04;;;;;;;7.28;2.63;;;;;;;19.73;33.71;97243.03;5053219;28;20462;-67
2021/10/03 10:25:53;;;;;;;4.70;2.13;;;;;;;19.88;32.70;97233.22;5038661;28;20041;-67
2021/10/03 10:28:35;;;;;;;4.50;1.92;;;;;;;20.01;33.47;97225.34;5033140;28;20034;-66
2021/10/03 10:31:03;;;;;;;3.65;2.15;;;;;;;20.13;33.51;97226.31;5033175;28;20109;-66
2021/10/03 10:33:51;;;;;;;4.05;2.20;;;;;;;20.15;32.89;97223.56;5033108;28;20021;-67
2021/10/03 10:36:30;;;;;;;7.82;2.03;;;;;;;20.14;32.85;97217.41;5032607;28;20120;-66
2021/10/03 10:39:09;;;;;;;9.40;2.67;;;;;;;20.20;31.02;97219.66;5033150;28;20535;-67
2021/10/03 10:41:43;;;;;;;4.88;2.03;;;;;;;20.09;31.87;97214.22;5032999;28;20095;-67
2021/10/03 10:44:25;;;;;;;3.47;1.83;;;;;;;20.12;31.85;97208.69;5036139;28;20036;-67
2021/10/03 10:46:53;;;;;;;5.53;2.10;;;;;;;20.20;31.50;97206.38;5052881;28;20467;-68
2021/10/03 10:49:43;;;;;;;3.30;1.73;;;;;;;20.32;30.41;97211.84;5052895;28;20013;-67
2021/10/03 10:52:20;;;;;;;5.25;1.92;;;;;;;19.99;31.89;97207.78;5052894;28;20175;-67
2021/10/03 10:55:10;;;;;;;2.97;1.88;;;;;;;20.00;31.84;97209.47;5039197;28;20036;-66
2021/10/03 10:57:48;;;;;;;5.87;1.70;;;;;;;19.86;30.87;97205.09;5044059;28;20086;-68
2021/10/03 11:00:20;;;;;;;4.43;2.10;;;;;;;19.80;30.67;97198.34;5052880;28;20262;-67
2021/10/03 11:02:54;;;;;;;2.78;1.88;;;;;;;19.77;31.01;97199.41;5052824;28;20025;-67
2021/10/03 11:05:32;;;;;;;5.70;1.88;;;;;;;19.93;30.20;97193.94;5051757;28;20352;-66
2021/10/03 11:08:26;;;;;;;2.35;1.98;;;;;;;20.07;30.56;97194.88;5052673;28;20032;-67
2021/10/03 11:10:58;;;;;;;3.33;1.60;;;;;;;20.14;29.03;97190.00;5035233;28;20041;-67
2021/10/03 11:13:45;;;;;;;1.45;1.30;;;;;;;19.94;28.87;97197.47;5034804;28;20487;-67
2021/10/03 11:16:26;;;;;;;1.50;1.20;;;;;;;19.89;28.79;97192.44;5032574;28;20057;-66
2021/10/03 11:18:57;;;;;;;3.10;1.20;;;;;;;19.86;28.98;97192.66;5032864;28;20033;-67
2021/10/03 11:21:30;;;;;;;2.58;1.85;;;;;;;19.83;26.97;97195.50;5036643;28;20044;-67
2021/10/03 11:23:58;;;;;;;2.97;1.52;;;;;;;19.77;27.20;97179.97;5037404;28;20356;-68
2021/10/03 11:26:24;;;;;;;1.52;1.10;;;;;;;19.75;27.29;97181.91;5036398;28;20026;-67
2021/10/03 11:28:53;;;;;;;4.60;1.80;;;;;;;19.70;26.05;97188.34;5036523;28;20052;-67
2021/10/03 11:31:44;;;;;;;4.70;2.17;;;;;;;19.62;27.02;97173.91;5036562;28;20040;-67
2021/10/03 11:34:29;;;;;;;2.90;1.20;;;;;;;19.63;26.66;97167.63;5038511;28;20037;-66
2021/10/03 11:36:56;;;;;;;3.30;1.30;;;;;;;19.70;27.69;97160.97;5055910;28;20057;-67
2021/10/03 11:39:36;;;;;;;2.42;1.40;;;;;;;19.70;28.12;97155.66;5056149;28;20056;-67
2021/10/03 11:42:02;;;;;;;3.70;1.40;;;;;;;19.76;27.39;97157.91;5056218;28;20021;-67